»·PEaware :: N664ST KSNA-KSAN

N664ST :: KSNA-KSAN

FLIGHT INFORMATION

Flight Status: Arrived
Operator: Privately registered:
United States
More flights under this callsign
Pilot: Anonymous 328 (328)
Aircraft: Unknown
(G500)
More flights by this aircraft type
Origin: KSNA John Wayne-Orange Co
United States
Destination: KSAN San Diego Intl-Lindbergh
United States
More flights between these airports :: More routes between these airports
Route: V25 PACIF V208 LAX118 CARDI MZB320 MZB
File this flight plan on PilotEdge
Remarks:
Altitude:
(Current/Filed)
11,000ft
Speed:
(Current/Filed)
0kts
Departed: 07-Dec-18 07:59 AM
Arrived: 07-Dec-18 08:49 AM
Distance/Time
Traveled:
66nm/0:50
Distance/Time
To Go:
Arrived

Flight Plot

Page will automatically refresh every two minutes.


Map Options




Map Legend


Flown Route
Filed Route
Departure Airport
Arrival Airport
Navaid (VOR, NDB)
Fix

Horizontal Profiles

Position Reports

Time Latitude Longitude Heading Altitude Ground
Speed
07-Dec-18 07:26 33.665874 -117.873528 31 61ft 0kts
07-Dec-18 07:27 33.665874 -117.873528 31 61ft 0kts
07-Dec-18 07:28 33.665874 -117.873528 31 61ft 0kts
07-Dec-18 07:29 33.665874 -117.873528 31 61ft 0kts
07-Dec-18 07:30 33.665874 -117.873528 31 61ft 0kts
07-Dec-18 07:31 33.665874 -117.873528 31 61ft 0kts
07-Dec-18 07:32 33.665874 -117.873528 31 61ft 0kts
07-Dec-18 07:33 33.665874 -117.873528 31 61ft 0kts
07-Dec-18 07:34 33.665874 -117.873528 31 61ft 0kts
07-Dec-18 07:35 33.665874 -117.873528 31 61ft 0kts
07-Dec-18 07:36 33.665874 -117.873528 31 61ft 0kts
07-Dec-18 07:37 33.665874 -117.873528 31 61ft 0kts
07-Dec-18 07:38 33.665874 -117.873528 31 61ft 0kts
07-Dec-18 07:39 33.665874 -117.873528 31 61ft 0kts
07-Dec-18 07:40 33.665874 -117.873528 31 61ft 0kts
07-Dec-18 07:41 33.665874 -117.873528 31 61ft 0kts
07-Dec-18 07:42 33.665874 -117.873528 31 61ft 0kts
07-Dec-18 07:43 33.665874 -117.873528 31 61ft 0kts
07-Dec-18 07:44 33.665874 -117.873528 31 61ft 0kts
07-Dec-18 07:45 33.665874 -117.873528 31 61ft 0kts
07-Dec-18 07:46 33.665874 -117.873528 31 61ft 0kts
07-Dec-18 07:47 33.665874 -117.873528 31 61ft 0kts
07-Dec-18 07:48 33.667328 -117.872849 352 62ft 0kts
07-Dec-18 07:49 33.668743 -117.874710 18 61ft 8kts
07-Dec-18 07:50 33.670933 -117.873337 28 60ft 9kts
07-Dec-18 07:51 33.675167 -117.870667 29 56ft 23kts
07-Dec-18 07:52 33.680466 -117.867470 26 52ft 19kts
07-Dec-18 07:53 33.681889 -117.866310 82 50ft 0kts
07-Dec-18 07:54 33.681889 -117.866310 82 50ft 0kts
07-Dec-18 07:55 33.681889 -117.866310 82 50ft 0kts
07-Dec-18 07:56 33.681324 -117.865334 191 50ft 11kts
07-Dec-18 07:57 33.680889 -117.865601 221 51ft 11kts
07-Dec-18 07:58 33.652401 -117.878799 188 2051ft 187kts
07-Dec-18 07:59 33.597542 -117.912247 267 3832ft 275kts
07-Dec-18 08:00 33.644802 -117.937424 31 3204ft 209kts
07-Dec-18 08:01 33.692276 -117.903511 34 1867ft 184kts
07-Dec-18 08:02 33.702721 -117.864296 142 630ft 136kts
07-Dec-18 08:03 33.673428 -117.870277 208 57ft 24kts
07-Dec-18 08:04 33.674328 -117.871208 29 57ft 14kts
07-Dec-18 08:05 33.677876 -117.868935 28 54ft 14kts
07-Dec-18 08:06 33.681511 -117.866814 30 51ft 13kts
07-Dec-18 08:07 33.681900 -117.866348 75 50ft 0kts
07-Dec-18 08:08 33.681129 -117.865402 202 50ft 8kts
07-Dec-18 08:09 33.672890 -117.870636 207 103ft 160kts
07-Dec-18 08:10 33.621410 -117.886047 186 4462ft 240kts
07-Dec-18 08:11 33.538975 -117.897430 186 5169ft 281kts
07-Dec-18 08:12 33.463631 -117.907684 183 5436ft 271kts
07-Dec-18 08:13 33.398281 -117.864540 139 9638ft 283kts
07-Dec-18 08:14 33.337021 -117.801323 138 11001ft 292kts
07-Dec-18 08:15 33.284187 -117.728867 109 11002ft 293kts
07-Dec-18 08:16 33.267384 -117.630859 100 9466ft 280kts
07-Dec-18 08:17 33.259872 -117.549469 82 10795ft 269kts
07-Dec-18 08:20 33.292511 -117.287682 81 11101ft 293kts
07-Dec-18 08:20 33.294525 -117.271629 81 11102ft 293kts
07-Dec-18 08:20 33.296417 -117.255554 85 11101ft 293kts
07-Dec-18 08:22 33.242714 -117.203140 189 11008ft 293kts
07-Dec-18 08:23 33.162231 -117.218971 181 10997ft 291kts
07-Dec-18 08:24 33.081947 -117.220177 180 9254ft 285kts
07-Dec-18 08:25 33.005081 -117.221542 180 8164ft 254kts
07-Dec-18 08:26 32.940224 -117.222694 180 7255ft 221kts
07-Dec-18 08:27 32.879333 -117.223801 180 5692ft 216kts
07-Dec-18 08:28 32.819180 -117.225334 182 4594ft 214kts
07-Dec-18 08:29 32.753460 -117.223747 159 4993ft 246kts
07-Dec-18 08:30 32.743664 -117.161491 71 5002ft 214kts
07-Dec-18 08:31 32.762814 -117.094284 71 5002ft 215kts
07-Dec-18 08:32 32.766163 -117.025314 101 5002ft 215kts
07-Dec-18 08:33 32.754341 -116.955772 103 5001ft 214kts
07-Dec-18 08:34 32.705463 -116.938499 191 4025ft 196kts
07-Dec-18 08:35 32.683487 -116.983284 285 3807ft 188kts
07-Dec-18 08:36 32.697998 -117.043182 286 2766ft 186kts
07-Dec-18 08:37 32.710670 -117.095192 286 1744ft 134kts
07-Dec-18 08:38 32.722073 -117.142097 287 3124ft 178kts
07-Dec-18 08:39 32.739899 -117.191422 352 2580ft 145kts
07-Dec-18 08:40 32.754078 -117.140717 97 4002ft 212kts
07-Dec-18 08:41 32.751919 -117.068909 91 4000ft 228kts
07-Dec-18 08:42 32.744556 -116.994461 101 4002ft 227kts
07-Dec-18 08:42 32.719017 -116.948868 181 4013ft 199kts
07-Dec-18 08:43 32.679176 -116.983475 274 3985ft 196kts
07-Dec-18 08:44 32.696358 -117.039055 287 2872ft 155kts
07-Dec-18 08:45 32.707512 -117.082367 286 1996ft 132kts
07-Dec-18 08:46 32.717686 -117.124138 286 1180ft 131kts
07-Dec-18 08:48 32.729294 -117.172295 286 226ft 129kts
07-Dec-18 08:48 32.735153 -117.196312 286 22ft 23kts
07-Dec-18 08:49 32.734432 -117.197586 105 22ft 9kts
07-Dec-18 08:50 32.733635 -117.194275 105 22ft 11kts

Navigation Log

Ident Type
Flight plan parsing failed, navigation log unavailable